Time;durP1;ratioP1;P1;durP2;ratioP2;P2;SDS_P1;SDS_P2;PMS_P1;PMS_P2;Temp;Humidity;BMP_temperature;BMP_pressure;BME280_temperature;BME280_humidity;BME280_pressure;Samples;Min_cycle;Max_cycle;Signal;HPM_P1;HPM_P2
2021/10/16 00:01:49;;;;;;;1.93;1.20;;;10.50;99.90;;;;;;5104875;27;20602;-77
2021/10/16 00:04:16;;;;;;;1.50;1.40;;;10.50;99.90;;;;;;5113227;27;20231;-77
2021/10/16 00:06:43;;;;;;;1.30;1.20;;;10.50;99.90;;;;;;5115422;27;20224;-77
2021/10/16 00:09:10;;;;;;;1.17;1.10;;;10.40;99.90;;;;;;5113795;27;20251;-76
2021/10/16 00:11:37;;;;;;;2.33;1.33;;;10.40;99.90;;;;;;5109901;27;20203;-76
2021/10/16 00:14:04;;;;;;;1.43;1.10;;;10.40;99.90;;;;;;5113862;27;20682;-76
2021/10/16 00:16:31;;;;;;;1.37;1.27;;;10.30;99.90;;;;;;5115992;27;20689;-77
2021/10/16 00:18:59;;;;;;;1.30;0.97;;;10.30;99.90;;;;;;5113931;27;20289;-77
2021/10/16 00:21:26;;;;;;;1.17;1.00;;;10.30;99.90;;;;;;5117425;27;20220;-77
2021/10/16 00:23:53;;;;;;;1.03;0.87;;;10.30;99.90;;;;;;5115009;27;20532;-77
2021/10/16 00:26:21;;;;;;;0.90;0.90;;;10.30;99.90;;;;;;5110185;27;20199;-77
2021/10/16 00:28:48;;;;;;;1.77;0.97;;;10.30;99.90;;;;;;5093881;28;20229;-77
2021/10/16 00:31:15;;;;;;;0.60;0.60;;;10.30;99.90;;;;;;5109930;28;20195;-77
2021/10/16 00:33:42;;;;;;;1.13;0.70;;;10.30;99.90;;;;;;5109585;27;20221;-77
2021/10/16 00:36:10;;;;;;;1.00;0.90;;;10.30;99.90;;;;;;5110668;28;20204;-77
2021/10/16 00:38:37;;;;;;;2.70;1.13;;;10.30;99.90;;;;;;5109225;28;20234;-78
2021/10/16 00:41:04;;;;;;;1.10;0.80;;;10.30;99.90;;;;;;5110368;27;20230;-77
2021/10/16 00:43:31;;;;;;;2.27;1.13;;;10.30;99.90;;;;;;5111336;27;20223;-78
2021/10/16 00:45:58;;;;;;;1.00;0.80;;;10.20;99.90;;;;;;5109378;27;20561;-78
2021/10/16 00:48:25;;;;;;;1.10;0.90;;;10.20;99.90;;;;;;5109198;27;20209;-78
2021/10/16 00:50:53;;;;;;;1.83;1.00;;;10.20;99.90;;;;;;5112799;27;20248;-77
2021/10/16 00:53:21;;;;;;;1.10;1.00;;;10.10;99.90;;;;;;5112164;27;20301;-78
2021/10/16 00:55:50;;;;;;;1.27;1.00;;;10.10;99.90;;;;;;5110206;28;20202;-77
2021/10/16 00:58:18;;;;;;;2.90;1.03;;;10.10;99.90;;;;;;5108622;28;20196;-77
2021/10/16 01:00:45;;;;;;;2.10;0.97;;;10.10;99.90;;;;;;5111780;28;20234;-77
2021/10/16 01:03:12;;;;;;;2.53;1.17;;;10.10;99.90;;;;;;5112668;28;20230;-78
2021/10/16 01:05:40;;;;;;;0.90;0.80;;;10.10;99.90;;;;;;5108267;28;20213;-78
2021/10/16 01:08:10;;;;;;;2.00;1.03;;;10.00;99.90;;;;;;5110670;28;20750;-78
2021/10/16 01:10:39;;;;;;;1.03;0.93;;;10.00;99.90;;;;;;5114032;28;20215;-77
2021/10/16 01:13:06;;;;;;;0.97;0.90;;;10.10;99.90;;;;;;5113370;27;20193;-77
2021/10/16 01:15:34;;;;;;;2.53;0.80;;;10.10;99.90;;;;;;5112502;28;20565;-77
2021/10/16 01:18:02;;;;;;;0.63;0.63;;;10.10;99.90;;;;;;5108708;28;20199;-77
2021/10/16 01:20:30;;;;;;;0.70;0.70;;;10.00;99.90;;;;;;5119924;27;20576;-77
2021/10/16 01:23:00;;;;;;;1.30;0.77;;;10.00;99.90;;;;;;5109157;28;20229;-77
2021/10/16 01:25:27;;;;;;;0.80;0.80;;;10.00;99.90;;;;;;5115579;28;20210;-77
2021/10/16 01:27:55;;;;;;;0.73;0.73;;;10.00;99.90;;;;;;5107237;28;20766;-77
2021/10/16 01:30:25;;;;;;;1.33;0.80;;;10.00;99.90;;;;;;5108192;28;20204;-76
2021/10/16 01:32:52;;;;;;;1.27;0.70;;;10.00;99.90;;;;;;5108758;28;20196;-77
2021/10/16 01:35:19;;;;;;;2.27;1.13;;;10.10;99.90;;;;;;5108206;28;20275;-78
2021/10/16 01:37:48;;;;;;;1.50;0.87;;;10.10;99.90;;;;;;5108907;28;20201;-78
2021/10/16 01:40:20;;;;;;;1.17;0.83;;;10.10;99.90;;;;;;5109065;28;20214;-77
2021/10/16 01:42:49;;;;;;;1.13;0.80;;;10.10;99.90;;;;;;5104577;28;20230;-77
2021/10/16 01:45:20;;;;;;;1.23;0.60;;;10.10;99.90;;;;;;5096766;28;20218;-77
2021/10/16 01:47:51;;;;;;;2.93;0.97;;;10.10;99.90;;;;;;5113021;27;20235;-77
2021/10/16 01:50:24;;;;;;;0.70;0.70;;;10.10;99.90;;;;;;5114572;27;20234;-76
2021/10/16 01:52:52;;;;;;;0.77;0.77;;;10.10;99.90;;;;;;5114630;27;20202;-77
2021/10/16 01:55:21;;;;;;;3.03;1.10;;;10.10;99.90;;;;;;5111498;28;20200;-77
2021/10/16 01:57:53;;;;;;;1.10;0.80;;;10.10;99.90;;;;;;5113144;27;20214;-77
2021/10/16 02:00:21;;;;;;;2.60;0.83;;;10.10;99.90;;;;;;5114222;27;20227;-77
2021/10/16 02:02:54;;;;;;;0.80;0.70;;;10.10;99.90;;;;;;5112313;27;20237;-78
2021/10/16 02:05:32;;;;;;;1.37;0.60;;;10.10;99.90;;;;;;5113091;27;20202;-77
2021/10/16 02:08:14;;;;;;;1.10;0.90;;;10.10;99.90;;;;;;5111229;28;20367;-78
2021/10/16 02:10:42;;;;;;;2.27;0.90;;;10.10;99.90;;;;;;5115833;27;20203;-77
2021/10/16 02:13:10;;;;;;;1.67;0.90;;;10.20;99.90;;;;;;5115384;27;20253;-77
2021/10/16 02:15:54;;;;;;;1.43;0.80;;;10.20;99.90;;;;;;5105359;28;20223;-77
2021/10/16 02:18:27;;;;;;;1.23;0.90;;;10.20;99.90;;;;;;5116978;27;20572;-77
2021/10/16 02:20:54;;;;;;;3.40;1.20;;;10.20;99.90;;;;;;5117337;27;20609;-76
2021/10/16 02:23:26;;;;;;;2.23;1.03;;;10.30;99.90;;;;;;5113919;27;20317;-77
2021/10/16 02:25:55;;;;;;;1.63;0.90;;;10.30;99.90;;;;;;5113565;27;20248;-76
2021/10/16 02:28:24;;;;;;;1.70;0.90;;;10.30;99.90;;;;;;5110275;27;20618;-77
2021/10/16 02:31:13;;;;;;;1.53;0.90;;;10.30;99.90;;;;;;5110886;27;20460;-77
2021/10/16 02:33:40;;;;;;;0.83;0.80;;;10.40;99.90;;;;;;5111424;27;20211;-77
2021/10/16 02:36:09;;;;;;;1.47;0.80;;;10.40;99.90;;;;;;5111779;27;20207;-76
2021/10/16 02:38:37;;;;;;;2.60;0.97;;;10.40;99.90;;;;;;5112009;27;20196;-77
2021/10/16 02:41:05;;;;;;;0.77;0.67;;;10.40;99.90;;;;;;5111384;27;20281;-78
2021/10/16 02:43:32;;;;;;;1.30;0.90;;;10.40;99.90;;;;;;5112969;27;20762;-77
2021/10/16 02:45:59;;;;;;;1.23;1.13;;;10.50;99.90;;;;;;5110577;27;21214;-77
2021/10/16 02:48:27;;;;;;;1.30;0.90;;;10.50;99.90;;;;;;5112703;27;20222;-77
2021/10/16 02:50:54;;;;;;;0.90;0.90;;;10.50;99.90;;;;;;5114458;27;20221;-77
2021/10/16 02:53:24;;;;;;;1.93;1.00;;;10.50;99.90;;;;;;5114909;27;20222;-77
2021/10/16 02:56:00;;;;;;;1.93;0.80;;;10.50;99.90;;;;;;5113309;27;20294;-76
2021/10/16 02:58:29;;;;;;;1.87;0.97;;;10.40;99.90;;;;;;5110127;27;20260;-76
2021/10/16 03:00:56;;;;;;;0.60;0.50;;;10.40;99.90;;;;;;5114515;27;20198;-77
2021/10/16 03:03:23;;;;;;;0.60;0.60;;;10.40;99.90;;;;;;5115425;27;20317;-77
2021/10/16 03:05:50;;;;;;;1.40;0.83;;;10.30;99.90;;;;;;5113712;27;20218;-77
2021/10/16 03:08:19;;;;;;;1.00;0.70;;;10.30;99.90;;;;;;5111283;27;20204;-77
2021/10/16 03:10:46;;;;;;;1.07;0.57;;;10.30;99.90;;;;;;5117723;27;20202;-77
2021/10/16 03:13:19;;;;;;;0.97;0.63;;;10.20;99.90;;;;;;5117759;27;20191;-77
2021/10/16 03:15:48;;;;;;;0.97;0.77;;;10.20;99.90;;;;;;5114810;27;20246;-77
2021/10/16 03:18:15;;;;;;;0.50;0.50;;;10.20;99.90;;;;;;5110521;27;20272;-77
2021/10/16 03:20:42;;;;;;;0.83;0.83;;;10.20;99.90;;;;;;5122762;27;20201;-77
2021/10/16 03:23:13;;;;;;;0.93;0.60;;;10.10;99.90;;;;;;5110385;27;20254;-77
2021/10/16 03:25:40;;;;;;;2.77;0.90;;;10.10;99.90;;;;;;5117292;27;20211;-77
2021/10/16 03:28:07;;;;;;;1.87;0.70;;;10.10;99.90;;;;;;5108347;27;20684;-77
2021/10/16 03:30:37;;;;;;;2.30;0.60;;;10.00;99.90;;;;;;5109109;27;20689;-77
2021/10/16 03:33:06;;;;;;;4.27;1.20;;;10.00;99.90;;;;;;5110194;27;20198;-77
2021/10/16 03:35:34;;;;;;;0.70;0.70;;;10.00;99.90;;;;;;5109770;27;20252;-77
2021/10/16 03:38:01;;;;;;;2.40;0.77;;;10.00;99.90;;;;;;5110230;27;20303;-77
2021/10/16 03:40:28;;;;;;;1.90;0.83;;;10.00;99.90;;;;;;5109081;27;20257;-77
2021/10/16 03:42:55;;;;;;;1.03;0.60;;;10.00;99.90;;;;;;5105931;27;20215;-77
2021/10/16 03:45:22;;;;;;;1.73;0.80;;;9.90;99.90;;;;;;5111368;27;20206;-77
2021/10/16 03:47:51;;;;;;;1.03;0.60;;;9.90;99.90;;;;;;5111825;27;20295;-77
2021/10/16 03:50:21;;;;;;;1.37;0.80;;;9.90;99.90;;;;;;5110084;28;20207;-78
2021/10/16 03:52:48;;;;;;;0.63;0.60;;;9.90;99.90;;;;;;5111865;27;20219;-77
2021/10/16 03:55:16;;;;;;;1.73;0.80;;;9.90;99.90;;;;;;5112728;27;20227;-77
2021/10/16 03:57:42;;;;;;;1.00;0.80;;;9.90;99.90;;;;;;5112555;27;20233;-76
2021/10/16 04:00:17;;;;;;;1.70;0.80;;;9.90;99.90;;;;;;5111934;27;20771;-77
2021/10/16 04:02:51;;;;;;;3.67;1.00;;;9.90;99.90;;;;;;5113478;27;20634;-77
2021/10/16 04:05:19;;;;;;;1.90;1.20;;;9.80;99.90;;;;;;5109001;28;20804;-77
2021/10/16 04:07:47;;;;;;;2.07;1.10;;;9.80;99.90;;;;;;5112967;27;20207;-78
2021/10/16 04:10:14;;;;;;;3.40;1.10;;;9.80;99.90;;;;;;5113193;27;20272;-77
2021/10/16 04:12:41;;;;;;;2.43;1.00;;;9.80;99.90;;;;;;5108220;27;20199;-78
2021/10/16 04:15:10;;;;;;;1.60;0.77;;;9.80;99.90;;;;;;5108269;27;20224;-77
2021/10/16 04:17:37;;;;;;;4.40;1.30;;;9.80;99.90;;;;;;5113027;27;20198;-77
2021/10/16 04:20:05;;;;;;;2.17;1.00;;;9.80;99.90;;;;;;5113257;27;20276;-77
2021/10/16 04:22:40;;;;;;;2.93;1.20;;;9.80;99.90;;;;;;5112157;27;20732;-77
2021/10/16 04:25:10;;;;;;;4.97;1.43;;;9.80;99.90;;;;;;5114871;27;20206;-77
2021/10/16 04:27:37;;;;;;;1.83;1.10;;;9.80;99.90;;;;;;5107290;28;20289;-77
2021/10/16 04:30:19;;;;;;;1.77;1.00;;;9.80;99.90;;;;;;5107949;27;20559;-77
2021/10/16 04:32:46;;;;;;;1.40;0.90;;;9.80;99.90;;;;;;5110298;28;20202;-77
2021/10/16 04:35:13;;;;;;;2.10;0.97;;;9.90;99.90;;;;;;5109880;27;20206;-77
2021/10/16 04:37:40;;;;;;;1.27;0.90;;;9.90;99.90;;;;;;5109881;27;20203;-77
2021/10/16 04:40:13;;;;;;;1.67;0.70;;;9.90;99.90;;;;;;5110658;27;20274;-76
2021/10/16 04:42:42;;;;;;;0.90;0.70;;;9.90;99.90;;;;;;5109330;28;20230;-77
2021/10/16 04:45:10;;;;;;;1.77;1.00;;;9.90;99.90;;;;;;5109062;28;20249;-76
2021/10/16 04:47:37;;;;;;;1.87;1.10;;;9.90;99.90;;;;;;5111659;27;20208;-77
2021/10/16 04:50:06;;;;;;;1.17;1.00;;;9.90;99.90;;;;;;5112051;27;20202;-77
2021/10/16 04:52:33;;;;;;;2.20;1.10;;;9.90;99.90;;;;;;5110936;28;20227;-77
2021/10/16 04:55:03;;;;;;;1.50;1.00;;;9.80;99.90;;;;;;5109624;28;20297;-77
2021/10/16 04:57:32;;;;;;;3.43;0.97;;;9.80;99.90;;;;;;5111664;28;20733;-78
2021/10/16 05:00:00;;;;;;;1.60;1.13;;;9.80;99.90;;;;;;5112822;27;20208;-77
2021/10/16 05:02:27;;;;;;;1.43;1.00;;;9.80;99.90;;;;;;5111773;28;20213;-77
2021/10/16 05:04:55;;;;;;;1.23;0.80;;;9.80;99.90;;;;;;5111343;28;20669;-77
2021/10/16 05:07:22;;;;;;;4.43;1.20;;;9.80;99.90;;;;;;5108952;28;20230;-77
2021/10/16 05:09:49;;;;;;;1.97;1.10;;;9.80;99.90;;;;;;5109963;27;20700;-77
2021/10/16 05:12:17;;;;;;;3.60;1.20;;;9.80;99.90;;;;;;5107231;28;20206;-77
2021/10/16 05:14:46;;;;;;;1.83;1.10;;;9.80;99.90;;;;;;5107179;28;20219;-77
2021/10/16 05:17:14;;;;;;;2.43;1.13;;;9.80;99.90;;;;;;5107426;28;20304;-76
2021/10/16 05:19:41;;;;;;;2.77;1.30;;;9.80;99.90;;;;;;5109284;28;20276;-77
2021/10/16 05:22:08;;;;;;;1.83;1.20;;;9.80;99.90;;;;;;5109582;28;20210;-77
2021/10/16 05:24:39;;;;;;;7.00;1.50;;;9.80;99.90;;;;;;5135861;27;20321;-77
2021/10/16 05:27:06;;;;;;;1.80;1.60;;;9.80;99.90;;;;;;5120494;27;20197;-77
2021/10/16 05:29:34;;;;;;;6.77;1.57;;;9.80;99.90;;;;;;5110615;28;20301;-77
2021/10/16 05:32:03;;;;;;;2.77;1.17;;;9.80;99.90;;;;;;5112148;27;20774;-77
2021/10/16 05:34:30;;;;;;;3.10;1.30;;;9.80;99.90;;;;;;5112651;27;20289;-77
2021/10/16 05:36:58;;;;;;;2.33;1.07;;;9.80;99.90;;;;;;5111374;28;20702;-78
2021/10/16 05:39:26;;;;;;;3.90;1.40;;;9.80;99.90;;;;;;5113003;27;20678;-78
2021/10/16 05:41:53;;;;;;;4.00;1.50;;;9.80;99.90;;;;;;5107596;27;20206;-78
2021/10/16 05:44:20;;;;;;;4.50;1.80;;;9.80;99.90;;;;;;5112027;27;20716;-77
2021/10/16 05:46:48;;;;;;;2.87;1.47;;;9.80;99.90;;;;;;5112387;28;20610;-77
2021/10/16 05:49:16;;;;;;;2.73;1.20;;;9.90;99.90;;;;;;5113421;27;20210;-78
2021/10/16 05:51:43;;;;;;;2.50;1.00;;;9.90;99.90;;;;;;5114824;27;20207;-78
2021/10/16 05:54:10;;;;;;;3.67;1.37;;;9.90;99.90;;;;;;5113675;27;20198;-77
2021/10/16 05:56:37;;;;;;;1.63;1.10;;;9.90;99.90;;;;;;5114782;27;20560;-77
2021/10/16 05:59:04;;;;;;;2.70;1.10;;;10.10;99.90;;;;;;5111559;27;20263;-77
2021/10/16 06:01:32;;;;;;;1.77;1.00;;;10.10;99.90;;;;;;5112660;27;20206;-78
2021/10/16 06:03:59;;;;;;;2.77;1.73;;;10.20;99.90;;;;;;5113511;27;20246;-77
2021/10/16 06:06:27;;;;;;;4.97;1.40;;;10.30;99.90;;;;;;5114850;27;20615;-77
2021/10/16 06:08:55;;;;;;;3.43;1.30;;;10.40;99.90;;;;;;5113495;27;20661;-77
2021/10/16 06:11:22;;;;;;;4.17;1.40;;;10.40;99.90;;;;;;5112194;27;20214;-77
2021/10/16 06:13:49;;;;;;;3.00;1.63;;;10.50;99.90;;;;;;5114255;27;20256;-77
2021/10/16 06:16:16;;;;;;;1.93;1.20;;;10.50;99.90;;;;;;5116407;27;20210;-77
2021/10/16 06:18:44;;;;;;;2.77;1.30;;;10.60;99.90;;;;;;5113641;27;20213;-77
2021/10/16 06:21:12;;;;;;;1.83;1.17;;;10.60;99.90;;;;;;5118443;27;20254;-77
2021/10/16 06:23:45;;;;;;;7.23;1.73;;;10.70;99.90;;;;;;5114968;27;20865;-77
2021/10/16 06:26:15;;;;;;;2.07;1.20;;;10.70;99.90;;;;;;5111561;27;20214;-77
2021/10/16 06:28:43;;;;;;;1.87;1.20;;;10.80;99.90;;;;;;5110304;27;20202;-78
2021/10/16 06:31:10;;;;;;;2.13;1.37;;;10.90;99.90;;;;;;5110806;27;20285;-78
2021/10/16 06:33:37;;;;;;;5.70;1.50;;;11.00;99.90;;;;;;5111664;27;20736;-78
2021/10/16 06:36:05;;;;;;;2.57;1.23;;;11.10;99.90;;;;;;5110904;27;20199;-78
2021/10/16 06:38:48;;;;;;;2.80;1.33;;;11.10;99.90;;;;;;5110878;28;20218;-77
2021/10/16 06:41:15;;;;;;;1.63;1.10;;;11.20;99.90;;;;;;5113310;27;20216;-77
2021/10/16 06:44:01;;;;;;;1.30;1.20;;;11.20;99.90;;;;;;5113051;27;20745;-78
2021/10/16 06:46:32;;;;;;;1.63;1.00;;;11.40;99.90;;;;;;5114182;27;20225;-77
2021/10/16 06:49:12;;;;;;;2.50;1.07;;;11.50;99.90;;;;;;5111959;27;20324;-76
2021/10/16 06:51:40;;;;;;;2.43;1.40;;;11.60;99.90;;;;;;5112799;27;20261;-77
2021/10/16 06:54:10;;;;;;;1.83;1.20;;;11.70;99.90;;;;;;5113864;27;20294;-77
2021/10/16 06:56:37;;;;;;;3.33;1.20;;;11.80;99.90;;;;;;5115430;27;20204;-77
2021/10/16 06:59:04;;;;;;;2.77;1.40;;;11.90;99.90;;;;;;5110585;27;20204;-77
2021/10/16 07:01:31;;;;;;;2.47;1.20;;;12.30;99.90;;;;;;5112316;27;20468;-77
2021/10/16 07:04:03;;;;;;;2.50;1.10;;;13.20;99.90;;;;;;5114706;27;20789;-77
2021/10/16 07:06:30;;;;;;;3.70;1.57;;;14.30;99.90;;;;;;5114165;27;20249;-77
2021/10/16 07:09:00;;;;;;;3.23;1.40;;;15.40;99.90;;;;;;5113862;27;20612;-77
2021/10/16 07:11:29;;;;;;;3.57;1.60;;;16.40;99.90;;;;;;5111763;27;20195;-77
2021/10/16 07:13:55;;;;;;;2.73;1.40;;;17.40;99.90;;;;;;5114800;27;20624;-77
2021/10/16 07:16:23;;;;;;;3.17;1.50;;;18.30;99.90;;;;;;5117431;27;20552;-77
2021/10/16 07:18:50;;;;;;;3.93;1.60;;;19.20;99.90;;;;;;5116072;27;20187;-78
2021/10/16 07:21:17;;;;;;;3.63;1.70;;;19.90;98.70;;;;;;5120571;27;20228;-79
2021/10/16 07:23:45;;;;;;;5.18;1.85;;;20.60;96.60;;;;;;5115190;27;20737;-79
2021/10/16 07:26:12;;;;;;;3.60;1.50;;;21.10;95.10;;;;;;5113754;27;20665;-79
2021/10/16 07:28:41;;;;;;;6.88;3.03;;;21.50;93.70;;;;;;5108261;27;20567;-79
2021/10/16 07:31:08;;;;;;;3.60;1.85;;;21.80;90.40;;;;;;5109744;27;20200;-79
2021/10/16 07:33:35;;;;;;;5.22;1.85;;;22.00;89.50;;;;;;5110898;27;20219;-79
2021/10/16 07:36:02;;;;;;;4.38;2.00;;;22.10;88.00;;;;;;5111165;28;20290;-77
2021/10/16 07:38:29;;;;;;;3.13;1.98;;;22.20;87.30;;;;;;5112297;27;20223;-77
2021/10/16 07:40:56;;;;;;;2.50;1.73;;;22.40;85.70;;;;;;5111353;27;20656;-76
2021/10/16 07:43:24;;;;;;;3.65;1.77;;;22.70;84.20;;;;;;5110585;27;20251;-77
2021/10/16 07:45:52;;;;;;;5.28;1.88;;;23.20;82.40;;;;;;5111008;27;20253;-77
2021/10/16 07:48:19;;;;;;;4.03;1.70;;;23.70;80.60;;;;;;5109638;27;20216;-77
2021/10/16 07:50:46;;;;;;;3.50;1.98;;;24.30;77.10;;;;;;5110943;28;20203;-78
2021/10/16 07:53:13;;;;;;;3.58;1.73;;;24.70;74.90;;;;;;5112125;27;20208;-77
2021/10/16 07:55:40;;;;;;;3.05;1.90;;;25.10;72.20;;;;;;5113152;27;20212;-77
2021/10/16 07:58:07;;;;;;;3.33;1.90;;;25.50;70.50;;;;;;5111431;27;20200;-77
2021/10/16 08:00:34;;;;;;;4.72;2.15;;;25.80;68.10;;;;;;5112303;27;20223;-77
2021/10/16 08:03:02;;;;;;;5.85;1.90;;;26.20;65.20;;;;;;5115002;27;20337;-77
2021/10/16 08:05:29;;;;;;;4.10;2.03;;;26.60;63.70;;;;;;5105742;27;20299;-77
2021/10/16 08:07:56;;;;;;;4.90;2.25;;;27.00;60.50;;;;;;5114522;27;20198;-77
2021/10/16 08:10:24;;;;;;;4.30;2.08;;;27.40;59.30;;;;;;5114873;27;20203;-77
2021/10/16 08:12:51;;;;;;;4.63;2.10;;;27.80;58.30;;;;;;5114796;27;20294;-76
2021/10/16 08:15:18;;;;;;;3.60;2.15;;;28.20;57.40;;;;;;5110718;27;20200;-77
2021/10/16 08:17:45;;;;;;;6.60;1.90;;;28.60;54.30;;;;;;5114451;27;20720;-77
2021/10/16 08:20:14;;;;;;;3.22;2.40;;;28.90;53.20;;;;;;5116329;27;20204;-77
2021/10/16 08:22:42;;;;;;;3.17;1.98;;;29.20;51.40;;;;;;5112860;27;20252;-76
2021/10/16 08:25:10;;;;;;;3.13;2.15;;;29.40;50.80;;;;;;5117267;27;20220;-77
2021/10/16 08:27:38;;;;;;;5.65;2.50;;;29.70;49.90;;;;;;5109021;28;20241;-77
2021/10/16 08:30:07;;;;;;;5.97;2.78;;;30.00;48.20;;;;;;5107126;28;20256;-77
2021/10/16 08:32:35;;;;;;;4.18;2.83;;;30.30;47.90;;;;;;5108862;27;20235;-77
2021/10/16 08:35:02;;;;;;;5.30;2.55;;;30.60;46.30;;;;;;5109130;27;20192;-77
2021/10/16 08:37:30;;;;;;;2.95;1.90;;;30.90;45.90;;;;;;5108994;28;20365;-76
2021/10/16 08:39:57;;;;;;;3.95;2.58;;;31.30;45.70;;;;;;5111069;27;20681;-77
2021/10/16 08:42:24;;;;;;;6.45;2.50;;;31.70;44.60;;;;;;5109204;28;20703;-77
2021/10/16 08:44:57;;;;;;;5.65;2.25;;;31.90;43.30;;;;;;5110376;27;20220;-76
2021/10/16 08:47:25;;;;;;;5.07;2.78;;;32.10;42.80;;;;;;5108740;28;20298;-76
2021/10/16 08:49:53;;;;;;;3.65;2.53;;;32.30;41.60;;;;;;5111225;27;20199;-76
2021/10/16 08:52:20;;;;;;;3.90;2.60;;;32.50;41.70;;;;;;5111465;28;20269;-76
2021/10/16 08:54:48;;;;;;;3.53;2.53;;;32.50;40.70;;;;;;5111738;27;20192;-77
2021/10/16 08:57:15;;;;;;;3.00;2.33;;;32.90;41.10;;;;;;5111329;28;20203;-78
2021/10/16 08:59:42;;;;;;;2.95;2.45;;;33.40;40.00;;;;;;5110614;28;20220;-77
2021/10/16 09:02:09;;;;;;;3.42;2.40;;;33.70;39.20;;;;;;5105853;28;20220;-78
2021/10/16 09:04:37;;;;;;;5.60;2.60;;;34.00;38.60;;;;;;5110465;28;20308;-77
2021/10/16 09:07:20;;;;;;;4.53;2.40;;;34.00;37.60;;;;;;5113258;28;20199;-77
2021/10/16 09:09:49;;;;;;;5.28;2.35;;;34.00;36.30;;;;;;5113795;28;20667;-76
2021/10/16 09:12:17;;;;;;;4.45;2.70;;;33.80;36.50;;;;;;5110911;28;20197;-77
2021/10/16 09:14:49;;;;;;;2.53;1.90;;;33.70;36.60;;;;;;5107792;28;20682;-76
2021/10/16 09:17:17;;;;;;;2.33;1.90;;;33.40;36.40;;;;;;5113172;28;20670;-77
2021/10/16 09:19:46;;;;;;;1.73;1.48;;;33.10;36.40;;;;;;5114935;28;20567;-77
2021/10/16 09:22:18;;;;;;;4.45;3.13;;;33.00;36.10;;;;;;5112688;28;20323;-77
2021/10/16 09:24:48;;;;;;;5.68;2.95;;;33.10;35.50;;;;;;5114559;28;20277;-77
2021/10/16 09:27:18;;;;;;;4.20;2.95;;;33.50;35.30;;;;;;5100775;28;20227;-76
2021/10/16 09:29:47;;;;;;;3.20;2.90;;;33.50;34.90;;;;;;5107065;28;20551;-77
2021/10/16 09:32:16;;;;;;;4.20;2.92;;;33.70;34.60;;;;;;5107243;28;20241;-77
2021/10/16 09:34:46;;;;;;;6.05;2.47;;;34.00;33.70;;;;;;5108248;28;20584;-77
2021/10/16 09:37:14;;;;;;;1.95;1.75;;;34.10;33.40;;;;;;5109532;28;20196;-77
2021/10/16 09:39:42;;;;;;;2.13;1.90;;;34.00;33.40;;;;;;5110189;28;20707;-76
2021/10/16 09:42:11;;;;;;;4.78;2.50;;;34.00;33.20;;;;;;5108696;28;20288;-76
2021/10/16 09:44:43;;;;;;;2.40;1.90;;;33.80;32.10;;;;;;5108824;27;20216;-77
2021/10/16 09:47:13;;;;;;;2.25;2.00;;;33.70;33.10;;;;;;5108688;28;20210;-77
2021/10/16 09:49:42;;;;;;;2.10;1.90;;;33.70;32.50;;;;;;5109955;28;20195;-76
2021/10/16 09:52:11;;;;;;;2.70;1.92;;;33.80;32.10;;;;;;5107842;28;20211;-76
2021/10/16 09:54:39;;;;;;;2.30;1.95;;;33.80;31.90;;;;;;5111606;28;20202;-76
2021/10/16 09:57:08;;;;;;;2.63;2.40;;;33.90;31.80;;;;;;5110152;28;20314;-77
2021/10/16 09:59:38;;;;;;;3.28;2.83;;;34.20;31.70;;;;;;5110064;28;20195;-77
2021/10/16 10:02:06;;;;;;;3.97;3.22;;;34.10;31.20;;;;;;5107476;28;20204;-76
2021/10/16 10:04:36;;;;;;;3.63;2.53;;;34.10;31.40;;;;;;5111015;28;20235;-77
2021/10/16 10:07:05;;;;;;;3.53;2.72;;;34.30;31.00;;;;;;5108586;27;20199;-76
2021/10/16 10:09:33;;;;;;;4.50;2.42;;;34.10;30.50;;;;;;5115992;27;20196;-77
2021/10/16 10:12:00;;;;;;;4.05;2.33;;;33.40;30.90;;;;;;5112960;27;20651;-76
2021/10/16 10:14:28;;;;;;;4.35;2.20;;;32.50;31.40;;;;;;5115022;27;20227;-76
2021/10/16 10:17:00;;;;;;;2.58;2.05;;;31.50;32.20;;;;;;5117320;27;20216;-76
2021/10/16 10:19:29;;;;;;;2.47;1.95;;;30.80;32.80;;;;;;5116349;27;20211;-76
2021/10/16 10:21:57;;;;;;;3.08;1.80;;;30.10;33.30;;;;;;5115903;27;20546;-76
2021/10/16 10:24:38;;;;;;;3.15;2.05;;;29.50;34.10;;;;;;5117730;27;20655;-75
2021/10/16 10:27:10;;;;;;;2.15;1.70;;;29.00;34.20;;;;;;5110370;28;20742;-76
2021/10/16 10:29:39;;;;;;;4.22;2.20;;;28.60;34.60;;;;;;5109864;27;20207;-76
2021/10/16 10:32:15;;;;;;;5.40;1.95;;;28.60;34.20;;;;;;5110273;28;20211;-76
2021/10/16 10:34:53;;;;;;;2.15;1.70;;;28.90;34.40;;;;;;5112681;27;20562;-76
2021/10/16 10:37:20;;;;;;;2.55;1.65;;;29.30;34.10;;;;;;5113403;27;20192;-76
2021/10/16 10:39:57;;;;;;;3.17;2.08;;;29.10;34.10;;;;;;5113395;27;20578;-76
2021/10/16 10:42:43;;;;;;;3.33;1.88;;;29.10;34.30;;;;;;5105569;27;20192;-76
2021/10/16 10:45:39;;;;;;;3.42;1.90;;;29.50;34.10;;;;;;5111899;27;20215;-76
2021/10/16 10:48:17;;;;;;;3.35;2.03;;;30.00;33.80;;;;;;5111441;27;20261;-76
2021/10/16 10:51:01;;;;;;;2.78;1.90;;;30.50;33.50;;;;;;5111721;28;20198;-77
2021/10/16 10:53:40;;;;;;;1.63;1.50;;;30.90;33.20;;;;;;5114647;27;20192;-77
2021/10/16 10:56:10;;;;;;;1.88;1.77;;;31.40;33.10;;;;;;5113350;27;20277;-77
2021/10/16 10:59:12;;;;;;;2.38;1.73;;;31.70;32.80;;;;;;5109708;28;20291;-77
2021/10/16 11:01:59;;;;;;;4.20;2.00;;;31.60;32.80;;;;;;5113596;27;20355;-77
2021/10/16 11:04:52;;;;;;;2.92;1.80;;;31.30;32.90;;;;;;5113501;27;20238;-75
2021/10/16 11:07:37;;;;;;;3.30;2.60;;;30.10;33.10;;;;;;5113526;27;20214;-76
2021/10/16 11:10:05;;;;;;;3.63;2.50;;;29.50;33.90;;;;;;5110373;28;20215;-76
2021/10/16 11:12:34;;;;;;;3.92;2.33;;;29.60;33.80;;;;;;5114678;27;20200;-76
2021/10/16 11:15:01;;;;;;;5.30;2.65;;;29.30;33.90;;;;;;5115675;27;20668;-76
2021/10/16 11:17:40;;;;;;;6.43;2.13;;;28.90;34.10;;;;;;5116229;27;20199;-76
2021/10/16 11:20:13;;;;;;;2.67;2.15;;;28.30;34.60;;;;;;5108146;27;20672;-76
2021/10/16 11:22:46;;;;;;;3.05;2.20;;;27.70;35.20;;;;;;5112758;27;20689;-75
2021/10/16 11:25:18;;;;;;;4.07;2.25;;;27.30;35.70;;;;;;5115538;27;20284;-76
2021/10/16 11:28:00;;;;;;;2.70;1.88;;;27.20;35.90;;;;;;5108610;28;20215;-77
2021/10/16 11:30:27;;;;;;;3.97;2.00;;;26.80;36.20;;;;;;5097327;27;20202;-76
2021/10/16 11:33:01;;;;;;;2.90;2.08;;;26.20;36.50;;;;;;5110065;27;20196;-76
2021/10/16 11:35:29;;;;;;;3.30;2.33;;;25.70;37.20;;;;;;5110359;28;20188;-76
2021/10/16 11:37:56;;;;;;;3.47;1.95;;;25.30;37.80;;;;;;5112567;27;20202;-76
2021/10/16 11:40:25;;;;;;;2.08;1.80;;;25.00;38.30;;;;;;5100853;27;20299;-76
2021/10/16 11:42:54;;;;;;;2.58;1.90;;;24.70;39.30;;;;;;5112457;27;21005;-76
2021/10/16 11:45:24;;;;;;;3.15;1.55;;;24.30;39.00;;;;;;5100660;27;20216;-77
2021/10/16 11:47:53;;;;;;;4.20;2.08;;;23.90;40.10;;;;;;5112913;27;20279;-76
2021/10/16 11:50:22;;;;;;;2.75;1.90;;;23.40;40.30;;;;;;5109860;28;20208;-76
2021/10/16 11:52:52;;;;;;;3.00;1.67;;;22.90;41.40;;;;;;5114811;27;20226;-76
2021/10/16 11:55:22;;;;;;;3.40;1.80;;;22.60;41.30;;;;;;5114303;27;20211;-77
2021/10/16 11:57:50;;;;;;;3.08;2.10;;;22.20;41.90;;;;;;5114054;27;20230;-76
2021/10/16 12:00:18;;;;;;;4.07;1.63;;;21.90;42.20;;;;;;5115429;27;20194;-77
2021/10/16 12:02:46;;;;;;;3.80;1.70;;;21.70;42.50;;;;;;5115071;27;20211;-76
2021/10/16 12:05:15;;;;;;;2.88;1.83;;;21.60;43.00;;;;;;5106073;28;20742;-77
2021/10/16 12:07:42;;;;;;;2.80;1.88;;;21.40;43.10;;;;;;5114931;27;20276;-77
2021/10/16 12:10:22;;;;;;;4.00;1.95;;;21.30;43.50;;;;;;5115657;27;20238;-76
2021/10/16 12:13:00;;;;;;;2.58;2.10;;;21.10;43.70;;;;;;5114180;27;20761;-77
2021/10/16 12:15:39;;;;;;;3.20;1.90;;;20.80;43.90;;;;;;5112938;27;20190;-77
2021/10/16 12:18:06;;;;;;;2.53;1.83;;;20.60;44.30;;;;;;5109677;27;20208;-76
2021/10/16 12:20:47;;;;;;;2.78;1.73;;;20.30;44.40;;;;;;5120797;27;20654;-77
2021/10/16 12:23:15;;;;;;;2.05;1.50;;;20.00;44.50;;;;;;5107653;27;20207;-77
2021/10/16 12:25:49;;;;;;;5.10;2.13;;;19.90;44.90;;;;;;5116297;27;20302;-77
2021/10/16 12:28:17;;;;;;;1.98;1.58;;;19.60;45.20;;;;;;5103606;28;20203;-77
2021/10/16 12:31:01;;;;;;;3.55;1.88;;;19.40;45.40;;;;;;5116371;27;20203;-77
2021/10/16 12:33:28;;;;;;;2.63;1.80;;;19.10;45.70;;;;;;5124919;27;20227;-76
2021/10/16 12:35:59;;;;;;;2.42;1.67;;;19.00;46.00;;;;;;5110359;27;20220;-76
2021/10/16 12:38:27;;;;;;;4.15;1.77;;;18.80;46.30;;;;;;5111592;27;20196;-77
2021/10/16 12:40:56;;;;;;;2.90;2.00;;;18.80;46.60;;;;;;5105721;27;20207;-77
2021/10/16 12:43:25;;;;;;;2.60;1.90;;;18.80;46.80;;;;;;5107313;28;20670;-76
2021/10/16 12:45:52;;;;;;;6.18;3.20;;;18.70;47.10;;;;;;5107979;28;20220;-76
2021/10/16 12:48:25;;;;;;;4.22;2.33;;;18.60;47.60;;;;;;5108352;28;20682;-77
2021/10/16 12:50:55;;;;;;;2.30;1.60;;;18.50;47.80;;;;;;5108782;28;20712;-76
2021/10/16 12:53:22;;;;;;;4.70;2.05;;;18.30;48.50;;;;;;5108284;28;20284;-76
2021/10/16 12:55:49;;;;;;;2.45;2.00;;;18.20;48.10;;;;;;5108708;28;20188;-76
2021/10/16 12:58:19;;;;;;;5.72;2.28;;;18.10;48.20;;;;;;5109438;28;20191;-77
2021/10/16 13:00:48;;;;;;;1.85;1.73;;;18.00;48.30;;;;;;5108854;28;20199;-77